Time;durP1;ratioP1;P1;durP2;ratioP2;P2;SDS_P1;SDS_P2;PMS_P1;PMS_P2;Temp;Humidity;BMP_temperature;BMP_pressure;BME280_temperature;BME280_humidity;BME280_pressure;Samples;Min_cycle;Max_cycle;Signal;HPM_P1;HPM_P2
2021/09/29 00:01:54;;;;;;;8.90;5.30;;;14.20;82.30;;;;;;5072501;28;20021;-73
2021/09/29 00:04:19;;;;;;;8.63;5.45;;;14.20;82.60;;;;;;5072235;28;20025;-73
2021/09/29 00:06:45;;;;;;;6.70;4.78;;;14.10;82.70;;;;;;5072340;28;20036;-73
2021/09/29 00:09:11;;;;;;;6.15;4.63;;;14.10;82.70;;;;;;5072339;28;20019;-73
2021/09/29 00:11:36;;;;;;;9.57;5.20;;;14.10;83.00;;;;;;5072478;28;20086;-73
2021/09/29 00:14:03;;;;;;;6.15;4.07;;;14.10;82.80;;;;;;5072290;28;20492;-73
2021/09/29 00:16:29;;;;;;;6.97;4.65;;;14.00;82.90;;;;;;5072345;28;20024;-73
2021/09/29 00:18:54;;;;;;;5.50;4.40;;;14.00;83.30;;;;;;5072322;28;20020;-73
2021/09/29 00:21:20;;;;;;;5.75;4.05;;;14.00;83.40;;;;;;5072344;28;20447;-73
2021/09/29 00:23:47;;;;;;;5.82;4.38;;;14.10;83.30;;;;;;5072159;28;20020;-73
2021/09/29 00:26:12;;;;;;;8.18;4.50;;;14.10;83.20;;;;;;5072406;28;20031;-73
2021/09/29 00:28:38;;;;;;;5.95;4.30;;;14.10;83.10;;;;;;5072275;28;20385;-73
2021/09/29 00:31:16;;;;;;;5.20;4.25;;;14.10;83.10;;;;;;5075302;28;20170;-72
2021/09/29 00:33:46;;;;;;;7.85;4.43;;;14.10;83.10;;;;;;5079457;28;20024;-73
2021/09/29 00:36:12;;;;;;;6.82;4.95;;;14.10;83.00;;;;;;5078785;28;20086;-74
2021/09/29 00:38:37;;;;;;;6.32;4.75;;;14.10;83.10;;;;;;5079740;28;20427;-73
2021/09/29 00:41:03;;;;;;;9.70;4.47;;;14.10;83.30;;;;;;5075948;28;20016;-73
2021/09/29 00:43:29;;;;;;;13.13;5.32;;;14.10;83.60;;;;;;5075664;28;20034;-73
2021/09/29 00:45:56;;;;;;;7.22;4.95;;;14.10;83.50;;;;;;5075571;28;20024;-72
2021/09/29 00:48:21;;;;;;;6.22;4.15;;;14.10;83.60;;;;;;5075915;28;20040;-73
2021/09/29 00:50:49;;;;;;;8.40;5.07;;;14.10;83.60;;;;;;5074224;28;20063;-73
2021/09/29 00:53:15;;;;;;;6.07;4.90;;;14.00;83.90;;;;;;5075259;28;20048;-73
2021/09/29 00:55:41;;;;;;;6.38;5.00;;;14.00;84.00;;;;;;5075347;28;20123;-73
2021/09/29 00:58:07;;;;;;;7.32;4.80;;;13.90;84.20;;;;;;5075413;28;20052;-73
2021/09/29 01:00:32;;;;;;;6.70;4.90;;;13.90;84.60;;;;;;5075427;28;20083;-72
2021/09/29 01:02:58;;;;;;;10.15;5.60;;;13.90;84.60;;;;;;5075377;28;20029;-73
2021/09/29 01:05:24;;;;;;;10.88;5.15;;;13.90;84.90;;;;;;5075160;28;20054;-72
2021/09/29 01:08:29;;;;;;;7.45;4.68;;;13.90;84.90;;;;;;5075108;28;20361;-73
2021/09/29 01:11:06;;;;;;;10.65;6.25;;;13.80;84.60;;;;;;5052914;28;20079;-72
2021/09/29 01:13:47;;;;;;;8.27;5.65;;;13.90;84.80;;;;;;5072776;28;20028;-72
2021/09/29 01:16:13;;;;;;;13.95;5.45;;;13.80;85.10;;;;;;5074842;28;20508;-72
2021/09/29 01:18:43;;;;;;;6.93;5.15;;;13.80;85.20;;;;;;5074922;28;20029;-72
2021/09/29 01:21:13;;;;;;;7.40;5.70;;;13.80;85.00;;;;;;5075055;28;20032;-73
2021/09/29 01:24:02;;;;;;;9.80;6.15;;;13.80;84.90;;;;;;5074867;28;20024;-73
2021/09/29 01:26:31;;;;;;;10.60;5.82;;;13.80;84.60;;;;;;5074886;28;20028;-72
2021/09/29 01:29:12;;;;;;;11.07;6.65;;;13.70;84.60;;;;;;5074806;28;20397;-73
2021/09/29 01:31:39;;;;;;;9.02;6.28;;;13.80;84.50;;;;;;5074714;28;20025;-72
2021/09/29 01:34:07;;;;;;;6.80;5.25;;;13.80;84.10;;;;;;5074609;28;20031;-72
2021/09/29 01:36:34;;;;;;;9.65;6.00;;;13.80;83.90;;;;;;5074530;28;20067;-72
2021/09/29 01:39:00;;;;;;;10.88;6.47;;;13.80;83.60;;;;;;5074471;28;20468;-72
2021/09/29 01:41:31;;;;;;;9.63;5.57;;;13.90;83.30;;;;;;5073981;28;20103;-73
2021/09/29 01:43:57;;;;;;;9.43;5.95;;;13.90;83.20;;;;;;5074533;28;20384;-74
2021/09/29 01:46:28;;;;;;;9.20;6.40;;;13.90;82.80;;;;;;5074414;28;20064;-72
2021/09/29 01:49:06;;;;;;;6.47;4.70;;;14.00;82.70;;;;;;5074278;28;20058;-72
2021/09/29 01:51:36;;;;;;;6.07;5.35;;;14.00;82.60;;;;;;5074093;28;20025;-73
2021/09/29 01:54:04;;;;;;;7.93;5.53;;;14.00;82.30;;;;;;5074209;28;20032;-74
2021/09/29 01:56:31;;;;;;;6.47;4.50;;;14.00;82.30;;;;;;5074194;28;20475;-74
2021/09/29 01:58:57;;;;;;;9.35;4.55;;;14.10;82.30;;;;;;5073984;28;20473;-74
2021/09/29 02:01:23;;;;;;;9.45;5.32;;;14.00;82.20;;;;;;5074070;28;20037;-74
2021/09/29 02:03:49;;;;;;;7.88;4.70;;;14.00;82.10;;;;;;5073918;28;20024;-73
2021/09/29 02:06:15;;;;;;;7.95;5.03;;;14.00;82.10;;;;;;5074079;28;20105;-73
2021/09/29 02:08:41;;;;;;;9.40;4.95;;;14.10;82.20;;;;;;5074013;28;20112;-73
2021/09/29 02:11:06;;;;;;;6.28;4.30;;;14.00;82.10;;;;;;5074008;28;20107;-74
2021/09/29 02:13:32;;;;;;;6.30;4.35;;;14.00;82.20;;;;;;5074002;28;20020;-72
2021/09/29 02:15:58;;;;;;;8.70;5.32;;;13.90;82.40;;;;;;5073693;28;20036;-72
2021/09/29 02:18:23;;;;;;;8.43;5.18;;;13.90;82.50;;;;;;5073985;28;20387;-72
2021/09/29 02:20:52;;;;;;;10.25;5.25;;;13.90;82.40;;;;;;5073526;28;20416;-72
2021/09/29 02:23:19;;;;;;;10.30;4.88;;;13.90;82.40;;;;;;5073753;28;20023;-72
2021/09/29 02:25:45;;;;;;;5.97;4.25;;;13.90;82.50;;;;;;5073711;28;20388;-72
2021/09/29 02:28:11;;;;;;;8.90;4.72;;;13.80;82.50;;;;;;5072222;28;20115;-72
2021/09/29 02:30:36;;;;;;;7.95;4.85;;;13.80;82.70;;;;;;5073553;28;20021;-72
2021/09/29 02:33:02;;;;;;;7.57;4.90;;;13.80;82.60;;;;;;5073531;28;20086;-72
2021/09/29 02:35:28;;;;;;;7.57;4.85;;;13.80;82.70;;;;;;5073394;28;20040;-72
2021/09/29 02:37:53;;;;;;;8.13;5.35;;;13.70;82.80;;;;;;5073311;28;20027;-74
2021/09/29 02:40:19;;;;;;;6.80;4.97;;;13.60;83.20;;;;;;5073425;28;20036;-74
2021/09/29 02:42:45;;;;;;;7.57;5.50;;;13.60;83.50;;;;;;5073429;28;20024;-72
2021/09/29 02:45:11;;;;;;;8.38;4.80;;;13.50;83.40;;;;;;5073280;28;20043;-72
2021/09/29 02:47:36;;;;;;;4.82;4.00;;;13.50;83.60;;;;;;5073287;28;20020;-72
2021/09/29 02:50:04;;;;;;;7.60;4.63;;;13.50;83.70;;;;;;5073288;28;20031;-72
2021/09/29 02:52:29;;;;;;;6.57;4.45;;;13.50;84.50;;;;;;5072408;28;20040;-72
2021/09/29 02:54:55;;;;;;;7.38;5.13;;;13.50;83.80;;;;;;5073176;28;20089;-72
2021/09/29 02:57:21;;;;;;;8.68;3.65;;;13.40;81.80;;;;;;5073236;28;20025;-71
2021/09/29 02:59:46;;;;;;;5.18;3.10;;;13.50;80.40;;;;;;5073148;28;20021;-72
2021/09/29 03:02:12;;;;;;;7.78;3.35;;;13.50;78.80;;;;;;5073145;28;20078;-71
2021/09/29 03:04:37;;;;;;;6.50;2.80;;;13.60;76.50;;;;;;5073044;28;20492;-73
2021/09/29 03:07:03;;;;;;;4.75;2.50;;;13.70;76.00;;;;;;5073087;28;20067;-73
2021/09/29 03:09:29;;;;;;;3.83;2.45;;;13.80;74.20;;;;;;5073004;28;20111;-73
2021/09/29 03:11:54;;;;;;;5.05;2.47;;;13.90;74.20;;;;;;5072962;28;20116;-72
2021/09/29 03:14:20;;;;;;;5.10;2.63;;;13.90;73.90;;;;;;5072959;28;20025;-73
2021/09/29 03:16:46;;;;;;;5.97;2.17;;;13.90;73.20;;;;;;5071520;28;20032;-72
2021/09/29 03:19:11;;;;;;;2.92;1.75;;;13.90;70.40;;;;;;5072822;28;20028;-73
2021/09/29 03:21:37;;;;;;;4.70;1.60;;;13.90;69.40;;;;;;5072876;28;20032;-74
2021/09/29 03:24:03;;;;;;;3.10;1.55;;;13.90;67.10;;;;;;5072830;28;20020;-72
2021/09/29 03:26:28;;;;;;;3.47;1.75;;;13.90;66.40;;;;;;5072941;28;20028;-72
2021/09/29 03:28:54;;;;;;;4.43;2.03;;;13.90;67.30;;;;;;5072904;28;20127;-72
2021/09/29 03:31:19;;;;;;;3.50;1.77;;;13.80;68.20;;;;;;5072783;28;20056;-72
2021/09/29 03:33:45;;;;;;;3.42;1.90;;;13.80;68.70;;;;;;5072722;28;20031;-73
2021/09/29 03:36:10;;;;;;;4.03;1.90;;;13.80;68.20;;;;;;5072541;28;20046;-72
2021/09/29 03:38:36;;;;;;;3.55;1.90;;;13.80;68.80;;;;;;5072652;28;20538;-73
2021/09/29 03:41:01;;;;;;;4.95;1.30;;;13.70;68.80;;;;;;5072506;28;20538;-73
2021/09/29 03:43:27;;;;;;;7.40;1.63;;;13.70;68.80;;;;;;5072337;28;20090;-73
2021/09/29 03:45:53;;;;;;;4.35;1.80;;;13.70;69.50;;;;;;5072495;28;20385;-73
2021/09/29 03:48:18;;;;;;;2.20;1.23;;;13.70;68.70;;;;;;5072521;28;20380;-73
2021/09/29 03:50:44;;;;;;;3.15;1.60;;;13.60;68.40;;;;;;5072633;28;20554;-72
2021/09/29 03:53:09;;;;;;;2.97;1.10;;;13.60;68.90;;;;;;5071227;28;20140;-73
2021/09/29 03:55:35;;;;;;;3.45;1.83;;;13.60;69.20;;;;;;5071197;28;20040;-73
2021/09/29 03:58:01;;;;;;;4.20;1.60;;;13.60;68.90;;;;;;5072540;28;20021;-73
2021/09/29 04:00:28;;;;;;;3.47;1.13;;;13.60;69.40;;;;;;5072549;28;20021;-73
2021/09/29 04:02:54;;;;;;;4.50;1.40;;;13.50;69.30;;;;;;5072460;28;20019;-73
2021/09/29 04:05:19;;;;;;;3.28;1.02;;;13.50;69.20;;;;;;5074562;28;20094;-73
2021/09/29 04:07:45;;;;;;;4.32;1.20;;;13.50;69.30;;;;;;5076262;28;20021;-73
2021/09/29 04:10:11;;;;;;;2.75;1.02;;;13.50;69.40;;;;;;5076194;28;20518;-73
2021/09/29 04:12:39;;;;;;;3.33;1.67;;;13.50;69.40;;;;;;5076211;28;20028;-73
2021/09/29 04:15:06;;;;;;;2.45;1.20;;;13.60;69.90;;;;;;5092889;28;20035;-73
2021/09/29 04:17:31;;;;;;;3.15;1.58;;;13.60;69.90;;;;;;5093661;28;20019;-74
2021/09/29 04:19:57;;;;;;;4.25;1.58;;;13.50;70.30;;;;;;5076306;28;20457;-73
2021/09/29 04:22:22;;;;;;;4.90;1.13;;;13.60;70.10;;;;;;5075995;28;20033;-73
2021/09/29 04:24:48;;;;;;;2.97;1.25;;;13.60;69.50;;;;;;5074520;28;20121;-73
2021/09/29 04:27:14;;;;;;;5.75;1.20;;;13.60;69.90;;;;;;5075831;28;20108;-73
2021/09/29 04:29:40;;;;;;;2.08;0.95;;;13.60;69.70;;;;;;5075869;28;20376;-73
2021/09/29 04:32:08;;;;;;;1.83;0.93;;;13.60;69.70;;;;;;5075894;28;20099;-73
2021/09/29 04:34:34;;;;;;;4.35;1.10;;;13.60;69.90;;;;;;5075548;28;20040;-73
2021/09/29 04:36:59;;;;;;;4.30;1.77;;;13.70;70.20;;;;;;5075648;28;20027;-73
2021/09/29 04:39:25;;;;;;;4.75;1.70;;;13.60;70.80;;;;;;5075787;28;20063;-73
2021/09/29 04:41:51;;;;;;;2.85;1.60;;;13.70;72.30;;;;;;5074358;28;20031;-74
2021/09/29 04:44:16;;;;;;;4.93;1.60;;;13.70;72.00;;;;;;5075658;28;20025;-73
2021/09/29 04:46:42;;;;;;;2.80;1.20;;;13.70;72.30;;;;;;5075575;28;20028;-73
2021/09/29 04:49:08;;;;;;;2.70;1.38;;;13.70;72.20;;;;;;5075600;28;20048;-73
2021/09/29 04:51:33;;;;;;;3.78;1.10;;;13.80;72.20;;;;;;5075261;28;20032;-74
2021/09/29 04:53:59;;;;;;;3.17;1.23;;;13.80;72.30;;;;;;5075330;28;20040;-73
2021/09/29 04:56:25;;;;;;;3.38;1.50;;;13.70;72.00;;;;;;5075388;28;20067;-73
2021/09/29 04:58:50;;;;;;;3.60;0.93;;;13.70;71.80;;;;;;5075418;28;20017;-74
2021/09/29 05:01:20;;;;;;;4.55;1.35;;;13.70;70.10;;;;;;5075170;28;20029;-74
2021/09/29 05:03:45;;;;;;;5.20;1.10;;;13.70;71.00;;;;;;5075206;28;20389;-74
2021/09/29 05:06:11;;;;;;;1.75;1.15;;;13.70;71.40;;;;;;5075259;28;20029;-73
2021/09/29 05:08:38;;;;;;;3.63;1.02;;;13.70;71.60;;;;;;5075138;28;20035;-74
2021/09/29 05:11:04;;;;;;;2.53;1.13;;;13.70;72.00;;;;;;5073370;28;20167;-72
2021/09/29 05:13:32;;;;;;;3.75;1.42;;;13.60;72.20;;;;;;5074839;28;20021;-73
2021/09/29 05:16:00;;;;;;;5.47;1.40;;;13.60;72.50;;;;;;5074316;28;20094;-72
2021/09/29 05:18:27;;;;;;;5.18;1.50;;;13.60;72.90;;;;;;5074546;28;20052;-73
2021/09/29 05:20:53;;;;;;;2.28;1.17;;;13.50;73.30;;;;;;5074568;28;20530;-73
2021/09/29 05:23:18;;;;;;;2.55;1.33;;;13.50;73.70;;;;;;5074376;28;20099;-73
2021/09/29 05:25:44;;;;;;;3.45;1.58;;;13.40;73.90;;;;;;5074263;28;20088;-73
2021/09/29 05:28:15;;;;;;;2.83;1.10;;;13.30;74.00;;;;;;5074148;28;20461;-73
2021/09/29 05:30:41;;;;;;;3.30;1.33;;;13.30;74.30;;;;;;5073132;28;20017;-73
2021/09/29 05:33:07;;;;;;;5.70;1.52;;;13.30;74.40;;;;;;5073697;28;20025;-73
2021/09/29 05:35:33;;;;;;;2.90;1.20;;;13.30;74.50;;;;;;5074273;28;20389;-73
2021/09/29 05:37:58;;;;;;;4.97;1.40;;;13.20;74.70;;;;;;5074385;28;20040;-73
2021/09/29 05:40:24;;;;;;;2.15;1.00;;;13.20;75.10;;;;;;5075447;28;20036;-73
2021/09/29 05:42:50;;;;;;;13.55;5.38;;;13.10;75.30;;;;;;5075511;28;20393;-73
2021/09/29 05:45:15;;;;;;;6.72;3.72;;;13.00;75.70;;;;;;5077154;28;20040;-73
2021/09/29 05:47:41;;;;;;;4.28;1.63;;;13.00;76.00;;;;;;5074467;28;20025;-73
2021/09/29 05:50:07;;;;;;;1.85;1.17;;;13.00;76.30;;;;;;5075012;28;20530;-73
2021/09/29 05:52:33;;;;;;;3.65;1.30;;;13.00;75.60;;;;;;5078977;28;20393;-74
2021/09/29 05:54:59;;;;;;;3.13;1.05;;;13.00;75.50;;;;;;5075156;28;20036;-73
2021/09/29 05:57:24;;;;;;;2.67;1.02;;;13.00;74.00;;;;;;5074980;28;20455;-73
2021/09/29 05:59:50;;;;;;;2.33;0.93;;;13.00;73.90;;;;;;5075861;28;20024;-73
2021/09/29 06:02:17;;;;;;;7.10;1.20;;;13.00;74.10;;;;;;5074617;28;20109;-73
2021/09/29 06:04:42;;;;;;;1.88;1.00;;;13.10;74.40;;;;;;5074099;28;20201;-74
2021/09/29 06:07:10;;;;;;;3.60;1.35;;;13.00;74.50;;;;;;5073488;28;20469;-73
2021/09/29 06:09:39;;;;;;;3.75;1.20;;;13.00;74.90;;;;;;5073553;28;20099;-73
2021/09/29 06:12:05;;;;;;;2.30;1.17;;;13.00;75.00;;;;;;5073529;28;20033;-75
2021/09/29 06:14:31;;;;;;;4.43;1.00;;;13.00;75.10;;;;;;5073305;28;20024;-74
2021/09/29 06:17:00;;;;;;;1.60;0.90;;;12.90;75.30;;;;;;5073225;28;20036;-73
2021/09/29 06:19:26;;;;;;;7.53;1.50;;;12.90;75.40;;;;;;5073299;28;20429;-73
2021/09/29 06:21:51;;;;;;;5.43;1.27;;;12.90;75.70;;;;;;5073226;28;20111;-73
2021/09/29 06:24:17;;;;;;;9.18;1.90;;;12.90;75.60;;;;;;5073275;28;20025;-73
2021/09/29 06:26:42;;;;;;;3.28;1.85;;;13.00;75.30;;;;;;5073329;28;20048;-73
2021/09/29 06:29:08;;;;;;;3.45;1.55;;;13.10;75.10;;;;;;5073473;28;20465;-74
2021/09/29 06:31:34;;;;;;;3.35;1.67;;;13.20;75.10;;;;;;5072123;28;20263;-74
2021/09/29 06:33:59;;;;;;;4.28;1.23;;;13.20;74.70;;;;;;5073205;28;20101;-73
2021/09/29 06:36:25;;;;;;;2.42;1.10;;;13.30;74.40;;;;;;5073257;28;20039;-75
2021/09/29 06:38:52;;;;;;;2.42;1.17;;;13.40;73.60;;;;;;5073275;28;20028;-74
2021/09/29 06:41:17;;;;;;;4.80;1.38;;;13.40;73.50;;;;;;5073271;28;20021;-74
2021/09/29 06:43:43;;;;;;;3.85;1.40;;;13.50;74.40;;;;;;5073074;28;20021;-75
2021/09/29 06:46:08;;;;;;;3.58;1.25;;;13.50;73.40;;;;;;5072967;28;20067;-75
2021/09/29 06:48:34;;;;;;;3.90;1.15;;;13.50;72.70;;;;;;5073076;28;20025;-75
2021/09/29 06:51:00;;;;;;;4.95;1.13;;;13.50;70.10;;;;;;5072714;28;20025;-78
2021/09/29 06:53:25;;;;;;;2.85;0.90;;;13.70;68.50;;;;;;5072517;28;20052;-74
2021/09/29 06:55:52;;;;;;;5.13;1.88;;;13.90;68.10;;;;;;5072601;28;20508;-74
2021/09/29 06:58:18;;;;;;;6.15;1.17;;;14.00;67.80;;;;;;5073238;28;20100;-73
2021/09/29 07:00:44;;;;;;;4.15;0.88;;;14.00;67.00;;;;;;5072739;28;20056;-73
2021/09/29 07:03:12;;;;;;;5.22;0.93;;;14.00;67.00;;;;;;5072711;28;20020;-74
2021/09/29 07:05:38;;;;;;;5.60;1.08;;;14.00;66.90;;;;;;5072397;28;20032;-78
2021/09/29 07:08:04;;;;;;;8.50;1.63;;;14.10;68.50;;;;;;5072740;28;20020;-82
2021/09/29 07:10:30;;;;;;;3.13;0.88;;;14.40;77.00;;;;;;5072693;28;20508;-84
2021/09/29 07:12:57;;;;;;;4.38;1.00;;;14.60;66.50;;;;;;5071324;28;20069;-83
2021/09/29 07:15:23;;;;;;;2.75;0.68;;;14.80;66.20;;;;;;5072731;28;20037;-84
2021/09/29 07:17:51;;;;;;;3.92;0.93;;;14.80;65.10;;;;;;5071467;28;20024;-85
2021/09/29 07:20:17;;;;;;;5.28;0.98;;;14.90;65.00;;;;;;5071297;28;20112;-81
2021/09/29 07:22:43;;;;;;;3.40;0.73;;;14.90;64.50;;;;;;5071365;28;20441;-79
2021/09/29 07:25:09;;;;;;;3.90;0.93;;;14.80;64.50;;;;;;5073004;28;20081;-80
2021/09/29 07:27:34;;;;;;;6.63;1.40;;;14.80;65.00;;;;;;5070978;28;20419;-81
2021/09/29 07:30:00;;;;;;;2.75;0.80;;;14.80;65.50;;;;;;5072283;28;20025;-81
2021/09/29 07:32:26;;;;;;;5.05;1.23;;;14.80;65.70;;;;;;5071363;28;20025;-81
2021/09/29 07:34:52;;;;;;;4.03;0.88;;;14.90;65.60;;;;;;5071717;28;20033;-82
2021/09/29 07:37:17;;;;;;;8.82;1.17;;;14.90;64.90;;;;;;5071909;28;20400;-87
2021/09/29 07:39:46;;;;;;;2.40;0.73;;;14.80;64.80;;;;;;5074324;28;20025;-87
2021/09/29 07:42:12;;;;;;;6.80;1.45;;;14.80;65.00;;;;;;5076131;28;20447;-88
2021/09/29 07:44:37;;;;;;;3.72;0.80;;;14.70;65.70;;;;;;5076922;28;20050;-87
2021/09/29 07:47:03;;;;;;;2.55;1.00;;;14.70;65.50;;;;;;5077206;28;20020;-90
2021/09/29 07:49:28;;;;;;;3.03;0.80;;;14.80;65.10;;;;;;5076816;28;20039;-89
2021/09/29 07:51:57;;;;;;;3.05;0.95;;;15.00;65.40;;;;;;5076376;28;20520;-86
2021/09/29 07:54:25;;;;;;;2.67;0.80;;;15.10;64.30;;;;;;5077032;28;20096;-79
2021/09/29 07:56:51;;;;;;;5.03;0.77;;;15.10;63.20;;;;;;5076027;28;20031;-76
2021/09/29 07:59:17;;;;;;;3.08;0.90;;;15.10;63.50;;;;;;5075762;28;20021;-74
2021/09/29 08:01:42;;;;;;;2.53;1.15;;;15.10;63.00;;;;;;5075965;28;20024;-73
2021/09/29 08:04:08;;;;;;;5.65;0.82;;;15.10;64.20;;;;;;5075966;28;20021;-75
2021/09/29 08:06:35;;;;;;;3.40;0.70;;;15.30;64.50;;;;;;5075434;28;20161;-74
2021/09/29 08:09:00;;;;;;;4.05;0.93;;;15.40;63.40;;;;;;5075819;28;20012;-74
2021/09/29 08:11:26;;;;;;;5.60;0.80;;;15.40;61.60;;;;;;5075920;28;20036;-73
2021/09/29 08:13:51;;;;;;;5.75;1.00;;;15.40;62.00;;;;;;5075836;28;20020;-74
2021/09/29 08:16:17;;;;;;;4.35;0.77;;;15.30;62.80;;;;;;5075556;28;20033;-74
2021/09/29 08:18:43;;;;;;;3.67;1.00;;;15.50;62.50;;;;;;5075852;28;20075;-74
2021/09/29 08:21:14;;;;;;;4.07;0.77;;;15.60;60.40;;;;;;5075572;28;20016;-75
2021/09/29 08:23:42;;;;;;;3.33;1.08;;;15.80;61.50;;;;;;5075710;28;20013;-75
2021/09/29 08:29:15;;;;;;;6.07;1.30;;;16.10;60.10;;;;;;5075422;28;20056;-74
2021/09/29 08:34:33;;;;;;;4.00;1.17;;;15.70;60.00;;;;;;5075355;28;20039;-74
2021/09/29 08:37:45;;;;;;;3.42;1.20;;;15.40;61.00;;;;;;5075244;28;20495;-73
2021/09/29 08:44:56;;;;;;;6.80;1.38;;;15.80;62.00;;;;;;5074977;28;20034;-74
2021/09/29 08:47:26;;;;;;;5.43;1.00;;;15.90;61.80;;;;;;5075034;28;20151;-73
2021/09/29 08:53:13;;;;;;;7.68;1.10;;;16.10;60.50;;;;;;5073610;28;20126;-74
2021/09/29 08:55:50;;;;;;;6.75;1.08;;;16.10;59.40;;;;;;5074682;28;20085;-74
2021/09/29 09:17:35;;;;;;;9.02;1.38;;;16.00;60.70;;;;;;5073758;28;20507;-75
2021/09/29 09:20:21;;;;;;;3.47;0.93;;;16.30;60.50;;;;;;5072083;28;20033;-74
2021/09/29 09:22:52;;;;;;;3.70;0.82;;;16.50;58.10;;;;;;5074311;28;20025;-75
2021/09/29 09:25:31;;;;;;;7.80;1.00;;;16.70;56.70;;;;;;5074484;28;20032;-75
2021/09/29 09:27:57;;;;;;;2.03;0.80;;;16.90;57.00;;;;;;5074406;28;20035;-74
2021/09/29 09:30:31;;;;;;;5.22;1.35;;;17.10;55.50;;;;;;5074384;28;20385;-74
2021/09/29 09:32:57;;;;;;;5.97;0.85;;;17.40;55.30;;;;;;5074271;28;20028;-74
2021/09/29 09:35:27;;;;;;;4.90;1.05;;;17.50;52.10;;;;;;5074251;28;20036;-74
2021/09/29 09:37:59;;;;;;;2.53;0.90;;;17.40;52.20;;;;;;5073970;28;20024;-74
2021/09/29 09:40:29;;;;;;;6.43;1.20;;;17.30;52.40;;;;;;5074067;28;20024;-74
2021/09/29 09:42:57;;;;;;;3.25;0.70;;;17.40;52.30;;;;;;5072513;28;20477;-74
2021/09/29 09:45:41;;;;;;;3.67;1.00;;;17.60;53.10;;;;;;5073995;28;20025;-74
2021/09/29 09:48:16;;;;;;;3.45;0.80;;;17.80;52.60;;;;;;5073967;28;20020;-75
2021/09/29 09:50:42;;;;;;;1.58;0.70;;;18.10;51.00;;;;;;5073881;28;20039;-74
2021/09/29 09:53:12;;;;;;;3.92;0.80;;;18.10;49.40;;;;;;5073940;28;20040;-74
2021/09/29 09:55:38;;;;;;;4.70;1.05;;;18.00;48.90;;;;;;5073309;28;20033;-74
2021/09/29 09:58:03;;;;;;;4.55;1.00;;;18.20;48.10;;;;;;5073680;28;20031;-74
2021/09/29 10:00:32;;;;;;;2.88;0.80;;;18.40;48.80;;;;;;5073597;28;20039;-74
2021/09/29 10:03:00;;;;;;;7.97;1.75;;;18.60;47.50;;;;;;5073264;28;20025;-75
2021/09/29 10:05:27;;;;;;;5.32;0.65;;;18.70;47.50;;;;;;5073011;28;20035;-75
2021/09/29 10:07:54;;;;;;;5.43;0.90;;;18.50;47.50;;;;;;5072967;28;20107;-75
2021/09/29 10:27:13;;;;;;;5.13;1.25;;;18.00;48.30;;;;;;5073192;28;20020;-76
2021/09/29 10:29:45;;;;;;;4.82;0.85;;;18.20;48.80;;;;;;5073091;28;20025;-76
2021/09/29 10:32:18;;;;;;;6.55;1.73;;;18.30;47.00;;;;;;5072929;28;20078;-78
2021/09/29 10:35:12;;;;;;;3.28;0.93;;;18.10;47.90;;;;;;5072814;28;20051;-76
2021/09/29 10:38:00;;;;;;;4.82;1.33;;;18.30;47.00;;;;;;5072950;28;20024;-78
2021/09/29 10:43:06;;;;;;;4.45;0.80;;;18.70;48.40;;;;;;5072992;28;20051;-77
2021/09/29 10:51:09;;;;;;;2.90;1.13;;;19.30;44.30;;;;;;5071998;28;20372;-77
2021/09/29 11:07:18;;;;;;;7.13;1.45;;;18.50;46.70;;;;;;5072631;28;20082;-78
2021/09/29 12:08:46;;;;;;;4.38;0.82;;;19.60;42.80;;;;;;5072306;28;20063;-76
2021/09/29 12:11:23;;;;;;;1.92;0.47;;;19.30;44.10;;;;;;5072060;28;20178;-72
2021/09/29 12:13:57;;;;;;;3.13;0.60;;;19.00;45.10;;;;;;5071968;28;20024;-73
2021/09/29 12:16:37;;;;;;;4.50;1.13;;;18.90;46.00;;;;;;5071976;28;20029;-73
2021/09/29 12:19:13;;;;;;;3.97;0.90;;;19.50;45.00;;;;;;5071907;28;20060;-73
2021/09/29 12:21:50;;;;;;;2.95;0.63;;;19.50;44.00;;;;;;5071836;28;20023;-75
2021/09/29 12:24:33;;;;;;;1.98;0.73;;;19.80;44.60;;;;;;5071982;28;20031;-74
2021/09/29 12:27:01;;;;;;;10.15;1.58;;;19.80;44.20;;;;;;5075659;28;20366;-73
2021/09/29 12:35:09;;;;;;;2.85;0.80;;;19.00;45.10;;;;;;5075221;28;20358;-74
2021/09/29 12:37:35;;;;;;;5.80;0.85;;;18.60;46.10;;;;;;5075324;28;20024;-74
2021/09/29 12:40:01;;;;;;;5.38;0.75;;;18.60;46.40;;;;;;5075388;28;20024;-74
2021/09/29 12:42:35;;;;;;;1.83;0.60;;;18.60;46.90;;;;;;5075142;28;20047;-73
2021/09/29 12:45:02;;;;;;;2.53;0.70;;;19.00;46.40;;;;;;5075240;28;20472;-77
2021/09/29 12:49:59;;;;;;;3.67;0.57;;;19.50;46.60;;;;;;5075181;28;20127;-73
2021/09/29 12:52:36;;;;;;;4.82;0.80;;;20.10;44.30;;;;;;5074942;28;20070;-74
2021/09/29 12:55:03;;;;;;;3.80;0.55;;;20.10;43.60;;;;;;5075144;28;20035;-75
2021/09/29 12:57:30;;;;;;;2.17;0.63;;;19.80;43.30;;;;;;5075151;28;20126;-73
2021/09/29 12:59:58;;;;;;;2.85;0.90;;;19.50;44.30;;;;;;5074914;28;20025;-74
2021/09/29 13:02:24;;;;;;;4.53;1.00;;;19.40;43.90;;;;;;5075101;28;20021;-75
2021/09/29 13:04:51;;;;;;;4.65;1.25;;;19.30;45.70;;;;;;5075020;28;20048;-76
2021/09/29 13:07:17;;;;;;;4.22;0.70;;;19.30;45.00;;;;;;5074916;28;20028;-75
2021/09/29 13:09:43;;;;;;;5.03;1.40;;;19.50;43.60;;;;;;5073329;28;20056;-78
2021/09/29 13:12:09;;;;;;;3.85;1.02;;;19.00;44.50;;;;;;5074891;28;20063;-76
2021/09/29 13:14:35;;;;;;;3.17;0.70;;;18.80;45.40;;;;;;5074613;28;20049;-76
2021/09/29 13:17:01;;;;;;;4.05;0.80;;;18.60;45.60;;;;;;5074737;28;20389;-76
2021/09/29 13:19:31;;;;;;;4.85;0.90;;;18.60;46.70;;;;;;5074671;28;20052;-76
2021/09/29 13:22:01;;;;;;;2.60;0.70;;;18.50;47.70;;;;;;5074462;28;20672;-75
2021/09/29 13:38:14;;;;;;;3.10;0.85;;;17.40;55.90;;;;;;5074066;28;19911;-74
2021/09/29 13:40:42;;;;;;;5.15;0.80;;;17.10;56.70;;;;;;5073984;28;20021;-75
2021/09/29 13:43:09;;;;;;;4.88;0.98;;;17.10;58.80;;;;;;5074121;28;20032;-74
2021/09/29 13:45:34;;;;;;;5.20;0.88;;;17.10;59.10;;;;;;5074177;28;20025;-74
2021/09/29 13:48:01;;;;;;;11.20;1.15;;;16.70;61.90;;;;;;5074126;28;20039;-74
2021/09/29 13:50:27;;;;;;;3.50;1.00;;;16.60;66.20;;;;;;5073877;28;20013;-73
2021/09/29 13:52:52;;;;;;;3.83;0.70;;;16.70;68.90;;;;;;5073455;28;20123;-74
2021/09/29 13:55:21;;;;;;;4.70;1.60;;;16.70;69.80;;;;;;5073614;28;20029;-79
2021/09/29 14:00:24;;;;;;;4.43;1.05;;;16.40;69.60;;;;;;5073452;28;20020;-76
2021/09/29 14:30:12;;;;;;;2.90;0.98;;;16.30;70.30;;;;;;5073451;28;20676;-74
2021/09/29 14:32:54;;;;;;;1.85;0.70;;;16.10;71.40;;;;;;5073056;28;20392;-74
2021/09/29 14:35:19;;;;;;;6.47;1.08;;;16.00;73.50;;;;;;5074832;28;20483;-77
2021/09/29 14:37:45;;;;;;;5.18;1.15;;;15.90;75.10;;;;;;5071885;28;20027;-75
2021/09/29 14:40:11;;;;;;;3.92;0.63;;;15.70;75.40;;;;;;5072849;28;20047;-74
2021/09/29 14:42:37;;;;;;;3.10;0.98;;;15.60;75.60;;;;;;5072910;28;20025;-74
2021/09/29 14:45:03;;;;;;;3.92;0.70;;;15.50;75.80;;;;;;5072761;28;20032;-74
2021/09/29 14:47:28;;;;;;;2.13;0.60;;;15.20;75.00;;;;;;5072517;28;20116;-75
2021/09/29 14:49:54;;;;;;;5.72;0.50;;;14.70;76.10;;;;;;5072069;28;20044;-76
2021/09/29 14:52:20;;;;;;;1.38;0.55;;;14.40;78.00;;;;;;5072677;28;20063;-74
2021/09/29 14:54:45;;;;;;;2.17;0.95;;;14.20;80.00;;;;;;5072569;28;20040;-73
2021/09/29 14:57:11;;;;;;;1.83;1.05;;;13.90;83.00;;;;;;5072705;28;20024;-74
2021/09/29 14:59:44;;;;;;;2.83;0.80;;;13.80;83.20;;;;;;5072803;28;20427;-74
2021/09/29 15:02:09;;;;;;;4.93;0.63;;;13.70;84.10;;;;;;5072821;28;20024;-75
2021/09/29 15:04:35;;;;;;;2.13;0.73;;;13.70;83.90;;;;;;5072638;28;20436;-74
2021/09/29 15:07:01;;;;;;;1.55;0.65;;;13.70;84.20;;;;;;5072452;28;20477;-74
2021/09/29 15:09:27;;;;;;;4.53;1.08;;;13.70;84.20;;;;;;5072609;28;20021;-74
2021/09/29 15:11:52;;;;;;;2.95;1.10;;;13.80;83.60;;;;;;5071125;28;20032;-74
2021/09/29 15:14:25;;;;;;;6.32;1.05;;;13.80;83.80;;;;;;5072474;28;20027;-74
2021/09/29 15:17:07;;;;;;;3.50;1.05;;;13.90;83.60;;;;;;5072560;28;20117;-74
2021/09/29 15:22:12;;;;;;;5.80;1.33;;;13.90;84.00;;;;;;5072668;28;20472;-75
2021/09/29 15:24:53;;;;;;;2.72;1.17;;;13.80;85.00;;;;;;5072457;28;20023;-74
2021/09/29 16:02:16;;;;;;;1.17;0.60;;;12.70;79.60;;;;;;5075478;28;20453;-74
2021/09/29 16:21:03;;;;;;;2.75;1.35;;;12.50;79.80;;;;;;5075900;28;20055;-73
2021/09/29 16:31:10;;;;;;;0.40;0.40;;;12.60;76.20;;;;;;5075374;28;20074;-72
2021/09/29 16:36:09;;;;;;;1.20;0.90;;;12.70;76.00;;;;;;5091465;28;20129;-73
2021/09/29 16:38:35;;;;;;;1.20;0.70;;;12.70;76.30;;;;;;5078422;28;20024;-72
2021/09/29 16:41:02;;;;;;;3.10;0.73;;;12.90;76.10;;;;;;5075659;28;20435;-73
2021/09/29 16:43:28;;;;;;;1.75;0.73;;;12.80;75.50;;;;;;5075491;28;20024;-72
2021/09/29 16:45:56;;;;;;;0.63;0.60;;;12.70;74.20;;;;;;5075296;28;20465;-72
2021/09/29 16:48:25;;;;;;;1.00;0.80;;;12.70;75.20;;;;;;5075392;28;20408;-72
2021/09/29 16:53:40;;;;;;;1.23;0.60;;;12.70;74.40;;;;;;5075144;28;20099;-73
2021/09/29 16:56:06;;;;;;;1.00;0.50;;;12.70;75.10;;;;;;5075488;28;20039;-73
2021/09/29 17:01:05;;;;;;;1.92;0.45;;;12.60;75.20;;;;;;5075123;28;20407;-73